sensor_id;sensor_type;location;lat;lon;timestamp;pressure;altitude;pressure_sealevel;temperature;humidity
3428;BME280;1727;42.624;23.406;2023-02-04T00:01:46;94670.16;;;2.93;87.78
3428;BME280;1727;42.624;23.406;2023-02-04T00:04:13;94682.78;;;2.84;88.26
3428;BME280;1727;42.624;23.406;2023-02-04T00:06:41;94669.63;;;2.72;90.12
3428;BME280;1727;42.624;23.406;2023-02-04T00:09:08;94671.28;;;2.43;92.88
3428;BME280;1727;42.624;23.406;2023-02-04T00:11:35;94677.56;;;2.39;93.84
3428;BME280;1727;42.624;23.406;2023-02-04T00:14:01;94663.63;;;2.26;94.99
3428;BME280;1727;42.624;23.406;2023-02-04T00:16:28;94668.16;;;2.23;96.24
3428;BME280;1727;42.624;23.406;2023-02-04T00:18:55;94665.97;;;2.31;96.32
3428;BME280;1727;42.624;23.406;2023-02-04T00:21:22;94657.31;;;2.16;97.68
3428;BME280;1727;42.624;23.406;2023-02-04T00:23:50;94657.31;;;2.16;98.47
3428;BME280;1727;42.624;23.406;2023-02-04T00:26:17;94657.06;;;2.21;98.65
3428;BME280;1727;42.624;23.406;2023-02-04T00:28:43;94657.72;;;2.24;98.89
3428;BME280;1727;42.624;23.406;2023-02-04T00:31:10;94669.72;;;2.25;99.46
3428;BME280;1727;42.624;23.406;2023-02-04T00:33:37;94654.63;;;2.17;100.00
3428;BME280;1727;42.624;23.406;2023-02-04T00:36:04;94653.28;;;2.26;100.00
3428;BME280;1727;42.624;23.406;2023-02-04T00:38:31;94655.38;;;2.35;99.60
3428;BME280;1727;42.624;23.406;2023-02-04T00:40:59;94652.69;;;2.37;99.73
3428;BME280;1727;42.624;23.406;2023-02-04T00:43:26;94661.78;;;2.44;99.76
3428;BME280;1727;42.624;23.406;2023-02-04T00:45:52;94660.13;;;2.57;99.01
3428;BME280;1727;42.624;23.406;2023-02-04T00:48:19;94659.66;;;2.51;98.29
3428;BME280;1727;42.624;23.406;2023-02-04T00:50:46;94651.88;;;2.36;98.33
3428;BME280;1727;42.624;23.406;2023-02-04T00:53:12;94654.72;;;2.16;99.92
3428;BME280;1727;42.624;23.406;2023-02-04T00:55:39;94648.22;;;2.09;100.00
3428;BME280;1727;42.624;23.406;2023-02-04T00:58:07;94642.88;;;1.96;100.00
3428;BME280;1727;42.624;23.406;2023-02-04T01:00:34;94651.81;;;1.91;100.00
3428;BME280;1727;42.624;23.406;2023-02-04T01:03:01;94644.06;;;1.91;100.00
3428;BME280;1727;42.624;23.406;2023-02-04T01:05:28;94640.38;;;2.10;100.00
3428;BME280;1727;42.624;23.406;2023-02-04T01:07:54;94625.47;;;1.84;100.00
3428;BME280;1727;42.624;23.406;2023-02-04T01:10:21;94619.72;;;1.63;100.00
3428;BME280;1727;42.624;23.406;2023-02-04T01:12:48;94629.28;;;1.93;100.00
3428;BME280;1727;42.624;23.406;2023-02-04T01:15:16;94612.41;;;2.17;100.00
3428;BME280;1727;42.624;23.406;2023-02-04T01:17:43;94605.84;;;2.26;100.00
3428;BME280;1727;42.624;23.406;2023-02-04T01:20:10;94595.72;;;2.37;99.87
3428;BME280;1727;42.624;23.406;2023-02-04T01:22:37;94594.63;;;2.11;99.16
3428;BME280;1727;42.624;23.406;2023-02-04T01:25:05;94585.13;;;2.11;98.97
3428;BME280;1727;42.624;23.406;2023-02-04T01:27:32;94587.31;;;1.88;99.87
3428;BME280;1727;42.624;23.406;2023-02-04T01:29:58;94583.13;;;2.01;99.55
3428;BME280;1727;42.624;23.406;2023-02-04T01:32:27;94585.84;;;1.83;99.39
3428;BME280;1727;42.624;23.406;2023-02-04T01:34:53;94582.66;;;1.78;99.49
3428;BME280;1727;42.624;23.406;2023-02-04T01:37:20;94581.75;;;1.79;99.47
3428;BME280;1727;42.624;23.406;2023-02-04T01:39:47;94575.44;;;1.99;99.29
3428;BME280;1727;42.624;23.406;2023-02-04T01:42:13;94563.69;;;1.94;98.62
3428;BME280;1727;42.624;23.406;2023-02-04T01:44:40;94558.16;;;2.00;98.80
3428;BME280;1727;42.624;23.406;2023-02-04T01:47:08;94551.66;;;2.23;98.06
3428;BME280;1727;42.624;23.406;2023-02-04T01:49:36;94557.81;;;2.36;97.36
3428;BME280;1727;42.624;23.406;2023-02-04T01:52:03;94546.38;;;2.54;97.01
3428;BME280;1727;42.624;23.406;2023-02-04T01:54:30;94547.13;;;2.70;95.73
3428;BME280;1727;42.624;23.406;2023-02-04T01:56:57;94549.63;;;2.86;95.24
3428;BME280;1727;42.624;23.406;2023-02-04T01:59:25;94550.66;;;2.98;94.75
3428;BME280;1727;42.624;23.406;2023-02-04T02:01:52;94553.31;;;3.10;93.70
3428;BME280;1727;42.624;23.406;2023-02-04T02:04:23;94550.91;;;3.07;93.21
3428;BME280;1727;42.624;23.406;2023-02-04T02:06:55;94545.75;;;3.07;91.89
3428;BME280;1727;42.624;23.406;2023-02-04T02:09:23;94546.75;;;3.05;91.82
3428;BME280;1727;42.624;23.406;2023-02-04T02:11:51;94535.63;;;3.17;91.75
3428;BME280;1727;42.624;23.406;2023-02-04T02:14:18;94540.16;;;3.28;91.35
3428;BME280;1727;42.624;23.406;2023-02-04T02:16:44;94545.91;;;3.33;90.59
3428;BME280;1727;42.624;23.406;2023-02-04T02:19:15;94533.66;;;3.35;89.66
3428;BME280;1727;42.624;23.406;2023-02-04T02:21:46;94524.50;;;3.29;90.18
3428;BME280;1727;42.624;23.406;2023-02-04T02:24:27;94533.13;;;3.30;89.88
3428;BME280;1727;42.624;23.406;2023-02-04T02:26:55;94524.50;;;3.29;89.82
3428;BME280;1727;42.624;23.406;2023-02-04T02:29:23;94518.31;;;3.32;90.19
3428;BME280;1727;42.624;23.406;2023-02-04T02:31:51;94509.59;;;3.33;89.38
3428;BME280;1727;42.624;23.406;2023-02-04T02:34:18;94493.94;;;2.93;90.92
3428;BME280;1727;42.624;23.406;2023-02-04T02:36:45;94481.47;;;3.13;90.86
3428;BME280;1727;42.624;23.406;2023-02-04T02:39:12;94477.41;;;3.08;90.58
3428;BME280;1727;42.624;23.406;2023-02-04T02:41:40;94468.63;;;3.11;90.64
3428;BME280;1727;42.624;23.406;2023-02-04T02:44:08;94458.69;;;2.91;90.18
3428;BME280;1727;42.624;23.406;2023-02-04T02:46:35;94456.78;;;3.07;90.18
3428;BME280;1727;42.624;23.406;2023-02-04T02:49:02;94444.34;;;3.12;89.73
3428;BME280;1727;42.624;23.406;2023-02-04T02:51:29;94434.63;;;3.16;89.62
3428;BME280;1727;42.624;23.406;2023-02-04T02:53:56;94435.56;;;3.15;89.64
3428;BME280;1727;42.624;23.406;2023-02-04T02:56:23;94449.81;;;3.22;89.20
3428;BME280;1727;42.624;23.406;2023-02-04T02:58:52;94439.25;;;3.25;89.17
3428;BME280;1727;42.624;23.406;2023-02-04T03:01:19;94440.91;;;3.26;88.54
3428;BME280;1727;42.624;23.406;2023-02-04T03:03:49;94442.38;;;3.30;88.17
3428;BME280;1727;42.624;23.406;2023-02-04T03:06:19;94446.72;;;3.29;87.74
3428;BME280;1727;42.624;23.406;2023-02-04T03:08:49;94452.66;;;3.31;87.66
3428;BME280;1727;42.624;23.406;2023-02-04T03:11:17;94465.81;;;3.28;87.94
3428;BME280;1727;42.624;23.406;2023-02-04T03:13:44;94448.53;;;3.15;87.94
3428;BME280;1727;42.624;23.406;2023-02-04T03:16:12;94441.72;;;2.99;88.54
3428;BME280;1727;42.624;23.406;2023-02-04T03:18:39;94453.50;;;2.76;90.58
3428;BME280;1727;42.624;23.406;2023-02-04T03:21:06;94453.69;;;2.73;90.89
3428;BME280;1727;42.624;23.406;2023-02-04T03:23:34;94457.22;;;2.58;91.99
3428;BME280;1727;42.624;23.406;2023-02-04T03:26:01;94453.63;;;2.61;92.02
3428;BME280;1727;42.624;23.406;2023-02-04T03:28:31;94457.03;;;2.61;92.02
3428;BME280;1727;42.624;23.406;2023-02-04T03:30:58;94452.03;;;2.44;92.27
3428;BME280;1727;42.624;23.406;2023-02-04T03:33:27;94440.84;;;2.29;92.71
3428;BME280;1727;42.624;23.406;2023-02-04T03:35:55;94437.88;;;2.21;93.96
3428;BME280;1727;42.624;23.406;2023-02-04T03:38:22;94432.25;;;2.29;93.95
3428;BME280;1727;42.624;23.406;2023-02-04T03:40:49;94433.19;;;2.42;93.14
3428;BME280;1727;42.624;23.406;2023-02-04T03:43:16;94426.41;;;2.54;92.67
3428;BME280;1727;42.624;23.406;2023-02-04T03:45:43;94431.88;;;2.63;92.06
3428;BME280;1727;42.624;23.406;2023-02-04T03:48:09;94428.19;;;2.39;92.75
3428;BME280;1727;42.624;23.406;2023-02-04T03:50:37;94428.63;;;2.60;92.84
3428;BME280;1727;42.624;23.406;2023-02-04T03:53:04;94415.19;;;2.82;91.66
3428;BME280;1727;42.624;23.406;2023-02-04T03:55:31;94413.59;;;2.93;91.53
3428;BME280;1727;42.624;23.406;2023-02-04T03:57:58;94414.38;;;3.08;90.88
3428;BME280;1727;42.624;23.406;2023-02-04T04:00:25;94405.75;;;3.22;90.57
3428;BME280;1727;42.624;23.406;2023-02-04T04:02:51;94395.72;;;3.30;89.82
3428;BME280;1727;42.624;23.406;2023-02-04T04:05:18;94384.72;;;3.26;89.58
3428;BME280;1727;42.624;23.406;2023-02-04T04:07:46;94376.00;;;3.00;89.08
3428;BME280;1727;42.624;23.406;2023-02-04T04:10:14;94361.06;;;2.77;91.05
3428;BME280;1727;42.624;23.406;2023-02-04T04:12:40;94361.38;;;2.99;90.07
3428;BME280;1727;42.624;23.406;2023-02-04T04:15:08;94365.56;;;3.15;89.62
3428;BME280;1727;42.624;23.406;2023-02-04T04:17:35;94356.50;;;2.95;90.60
3428;BME280;1727;42.624;23.406;2023-02-04T04:20:02;94353.00;;;3.08;90.14
3428;BME280;1727;42.624;23.406;2023-02-04T04:22:28;94355.19;;;3.15;90.50
3428;BME280;1727;42.624;23.406;2023-02-04T04:24:57;94364.25;;;3.22;90.36
3428;BME280;1727;42.624;23.406;2023-02-04T04:27:23;94354.81;;;3.21;90.48
3428;BME280;1727;42.624;23.406;2023-02-04T04:29:50;94354.75;;;2.95;90.72
3428;BME280;1727;42.624;23.406;2023-02-04T04:32:17;94370.91;;;2.99;89.93
3428;BME280;1727;42.624;23.406;2023-02-04T04:34:43;94369.19;;;2.85;90.30
3428;BME280;1727;42.624;23.406;2023-02-04T04:37:10;94370.31;;;2.81;91.05
3428;BME280;1727;42.624;23.406;2023-02-04T04:39:37;94380.84;;;2.92;90.71
3428;BME280;1727;42.624;23.406;2023-02-04T04:42:05;94383.03;;;2.98;90.79
3428;BME280;1727;42.624;23.406;2023-02-04T04:44:32;94383.78;;;3.00;90.67
3428;BME280;1727;42.624;23.406;2023-02-04T04:46:59;94390.53;;;2.89;90.43
3428;BME280;1727;42.624;23.406;2023-02-04T04:49:25;94402.66;;;2.88;91.28
3428;BME280;1727;42.624;23.406;2023-02-04T04:51:52;94409.72;;;2.86;91.41
3428;BME280;1727;42.624;23.406;2023-02-04T04:54:19;94400.03;;;2.75;91.84
3428;BME280;1727;42.624;23.406;2023-02-04T04:56:46;94404.28;;;2.91;92.15
3428;BME280;1727;42.624;23.406;2023-02-04T04:59:14;94392.88;;;2.93;91.60
3428;BME280;1727;42.624;23.406;2023-02-04T05:01:41;94403.03;;;2.96;91.93
3428;BME280;1727;42.624;23.406;2023-02-04T05:04:07;94407.84;;;3.02;91.77
3428;BME280;1727;42.624;23.406;2023-02-04T05:06:34;94402.25;;;3.08;91.52
3428;BME280;1727;42.624;23.406;2023-02-04T05:09:01;94405.78;;;3.07;91.39
3428;BME280;1727;42.624;23.406;2023-02-04T05:11:28;94391.66;;;2.85;92.34
3428;BME280;1727;42.624;23.406;2023-02-04T05:13:55;94403.75;;;2.57;94.91
3428;BME280;1727;42.624;23.406;2023-02-04T05:16:23;94400.66;;;2.79;94.93
3428;BME280;1727;42.624;23.406;2023-02-04T05:18:50;94407.41;;;2.82;95.54
3428;BME280;1727;42.624;23.406;2023-02-04T05:21:16;94400.63;;;2.52;97.27
3428;BME280;1727;42.624;23.406;2023-02-04T05:23:43;94412.81;;;2.50;98.54
3428;BME280;1727;42.624;23.406;2023-02-04T05:26:10;94422.63;;;2.45;99.10
3428;BME280;1727;42.624;23.406;2023-02-04T05:28:37;94419.56;;;2.24;100.00
3428;BME280;1727;42.624;23.406;2023-02-04T05:31:03;94412.19;;;2.04;100.00
3428;BME280;1727;42.624;23.406;2023-02-04T05:33:32;94422.44;;;2.20;100.00
3428;BME280;1727;42.624;23.406;2023-02-04T05:35:58;94431.41;;;2.28;100.00
3428;BME280;1727;42.624;23.406;2023-02-04T05:38:25;94428.81;;;2.14;100.00
3428;BME280;1727;42.624;23.406;2023-02-04T05:40:52;94432.13;;;2.02;100.00
3428;BME280;1727;42.624;23.406;2023-02-04T05:43:18;94430.47;;;2.01;100.00
3428;BME280;1727;42.624;23.406;2023-02-04T05:45:45;94426.94;;;1.88;100.00
3428;BME280;1727;42.624;23.406;2023-02-04T05:48:12;94444.91;;;2.05;100.00
3428;BME280;1727;42.624;23.406;2023-02-04T05:50:40;94440.09;;;2.27;100.00
3428;BME280;1727;42.624;23.406;2023-02-04T05:53:07;94456.75;;;2.37;100.00
3428;BME280;1727;42.624;23.406;2023-02-04T05:55:34;94438.44;;;2.55;100.00
3428;BME280;1727;42.624;23.406;2023-02-04T05:58:00;94441.13;;;2.67;100.00
3428;BME280;1727;42.624;23.406;2023-02-04T06:00:27;94431.84;;;2.77;100.00
3428;BME280;1727;42.624;23.406;2023-02-04T06:02:54;94436.19;;;2.77;100.00
3428;BME280;1727;42.624;23.406;2023-02-04T06:05:20;94426.75;;;2.76;100.00
3428;BME280;1727;42.624;23.406;2023-02-04T06:07:49;94431.66;;;2.80;100.00
3428;BME280;1727;42.624;23.406;2023-02-04T06:10:16;94427.28;;;2.95;99.41
3428;BME280;1727;42.624;23.406;2023-02-04T06:12:43;94430.03;;;3.06;97.03
3428;BME280;1727;42.624;23.406;2023-02-04T06:15:10;94424.09;;;3.19;94.50
3428;BME280;1727;42.624;23.406;2023-02-04T06:17:37;94421.53;;;3.31;92.77
3428;BME280;1727;42.624;23.406;2023-02-04T06:20:05;94418.97;;;3.44;90.41
3428;BME280;1727;42.624;23.406;2023-02-04T06:22:32;94426.72;;;3.58;89.57
3428;BME280;1727;42.624;23.406;2023-02-04T06:25:00;94422.56;;;3.68;87.86
3428;BME280;1727;42.624;23.406;2023-02-04T06:27:27;94427.28;;;3.76;86.93
3428;BME280;1727;42.624;23.406;2023-02-04T06:29:54;94430.28;;;3.83;86.18
3428;BME280;1727;42.624;23.406;2023-02-04T06:32:21;94435.81;;;3.91;84.10
3428;BME280;1727;42.624;23.406;2023-02-04T06:34:48;94425.09;;;3.95;85.55
3428;BME280;1727;42.624;23.406;2023-02-04T06:37:15;94429.78;;;4.03;85.84
3428;BME280;1727;42.624;23.406;2023-02-04T06:39:42;94448.78;;;4.03;84.67
3428;BME280;1727;42.624;23.406;2023-02-04T06:42:10;94441.53;;;4.09;84.28
3428;BME280;1727;42.624;23.406;2023-02-04T06:44:37;94443.00;;;4.13;85.21
3428;BME280;1727;42.624;23.406;2023-02-04T06:47:04;94438.94;;;4.21;82.34
3428;BME280;1727;42.624;23.406;2023-02-04T06:49:31;94441.22;;;4.26;81.08
3428;BME280;1727;42.624;23.406;2023-02-04T06:51:57;94433.34;;;4.27;81.86
3428;BME280;1727;42.624;23.406;2023-02-04T06:54:24;94451.09;;;4.33;81.06
3428;BME280;1727;42.624;23.406;2023-02-04T06:56:51;94451.53;;;4.40;80.92
3428;BME280;1727;42.624;23.406;2023-02-04T06:59:19;94439.16;;;4.44;80.98
3428;BME280;1727;42.624;23.406;2023-02-04T07:01:46;94433.53;;;4.50;80.22
3428;BME280;1727;42.624;23.406;2023-02-04T07:04:12;94435.31;;;4.49;79.06
3428;BME280;1727;42.624;23.406;2023-02-04T07:06:39;94426.69;;;4.49;80.71
3428;BME280;1727;42.624;23.406;2023-02-04T07:09:06;94426.38;;;4.53;79.64
3428;BME280;1727;42.624;23.406;2023-02-04T07:11:33;94433.84;;;4.58;79.06
3428;BME280;1727;42.624;23.406;2023-02-04T07:14:00;94432.91;;;4.59;79.09
3428;BME280;1727;42.624;23.406;2023-02-04T07:16:28;94441.13;;;4.65;79.57
3428;BME280;1727;42.624;23.406;2023-02-04T07:18:55;94424.50;;;4.68;79.63
3428;BME280;1727;42.624;23.406;2023-02-04T07:21:21;94420.13;;;4.69;79.33
3428;BME280;1727;42.624;23.406;2023-02-04T07:23:48;94427.66;;;4.84;78.20
3428;BME280;1727;42.624;23.406;2023-02-04T07:26:15;94438.16;;;4.95;79.41
3428;BME280;1727;42.624;23.406;2023-02-04T07:28:42;94416.72;;;5.05;79.27
3428;BME280;1727;42.624;23.406;2023-02-04T07:31:09;94421.03;;;5.17;78.18
3428;BME280;1727;42.624;23.406;2023-02-04T07:33:37;94421.56;;;5.22;78.27
3428;BME280;1727;42.624;23.406;2023-02-04T07:36:04;94416.53;;;5.19;76.81
3428;BME280;1727;42.624;23.406;2023-02-04T07:38:30;94418.31;;;5.18;78.04
3428;BME280;1727;42.624;23.406;2023-02-04T07:40:57;94414.47;;;5.24;77.55
3428;BME280;1727;42.624;23.406;2023-02-04T07:43:24;94410.59;;;5.29;77.31
3428;BME280;1727;42.624;23.406;2023-02-04T07:45:51;94407.53;;;5.36;77.67
3428;BME280;1727;42.624;23.406;2023-02-04T07:48:18;94408.66;;;5.44;76.79
3428;BME280;1727;42.624;23.406;2023-02-04T07:50:46;94420.28;;;5.51;76.65
3428;BME280;1727;42.624;23.406;2023-02-04T07:53:12;94403.41;;;5.57;79.72
3428;BME280;1727;42.624;23.406;2023-02-04T07:55:39;94405.16;;;5.56;77.68
3428;BME280;1727;42.624;23.406;2023-02-04T07:58:06;94399.06;;;5.69;81.42
3428;BME280;1727;42.624;23.406;2023-02-04T08:00:33;94401.78;;;5.67;79.53
3428;BME280;1727;42.624;23.406;2023-02-04T08:02:59;94391.34;;;5.67;78.66
3428;BME280;1727;42.624;23.406;2023-02-04T08:05:26;94405.69;;;5.73;76.64
3428;BME280;1727;42.624;23.406;2023-02-04T08:07:56;94402.31;;;5.83;76.17
3428;BME280;1727;42.624;23.406;2023-02-04T08:10:23;94407.41;;;5.85;76.47
3428;BME280;1727;42.624;23.406;2023-02-04T08:12:49;94398.53;;;5.87;80.36
3428;BME280;1727;42.624;23.406;2023-02-04T08:15:16;94404.69;;;5.86;75.20
3428;BME280;1727;42.624;23.406;2023-02-04T08:17:43;94409.06;;;5.86;75.93
3428;BME280;1727;42.624;23.406;2023-02-04T08:20:10;94405.03;;;5.82;75.36
3428;BME280;1727;42.624;23.406;2023-02-04T08:22:37;94393.63;;;5.72;75.82
3428;BME280;1727;42.624;23.406;2023-02-04T08:25:06;94392.13;;;5.80;79.07
3428;BME280;1727;42.624;23.406;2023-02-04T08:27:34;94396.50;;;5.80;76.83
3428;BME280;1727;42.624;23.406;2023-02-04T08:30:01;94392.66;;;5.73;77.85
3428;BME280;1727;42.624;23.406;2023-02-04T08:32:28;94395.56;;;5.81;79.63
3428;BME280;1727;42.624;23.406;2023-02-04T08:34:55;94394.09;;;5.77;76.56
3428;BME280;1727;42.624;23.406;2023-02-04T08:37:22;94389.13;;;5.74;77.52
3428;BME280;1727;42.624;23.406;2023-02-04T08:39:49;94392.78;;;5.71;77.35
3428;BME280;1727;42.624;23.406;2023-02-04T08:42:17;94395.75;;;5.78;77.79
3428;BME280;1727;42.624;23.406;2023-02-04T08:44:44;94391.78;;;5.85;78.12
3428;BME280;1727;42.624;23.406;2023-02-04T08:47:11;94390.59;;;5.89;77.12
3428;BME280;1727;42.624;23.406;2023-02-04T08:49:37;94397.28;;;5.93;75.63
3428;BME280;1727;42.624;23.406;2023-02-04T08:52:04;94389.22;;;5.96;75.65
3428;BME280;1727;42.624;23.406;2023-02-04T08:54:32;94403.56;;;6.02;76.95
3428;BME280;1727;42.624;23.406;2023-02-04T08:56:59;94399.78;;;6.06;77.79
3428;BME280;1727;42.624;23.406;2023-02-04T08:59:27;94392.53;;;5.98;77.16
3428;BME280;1727;42.624;23.406;2023-02-04T09:01:54;94400.59;;;5.95;77.49
3428;BME280;1727;42.624;23.406;2023-02-04T09:04:22;94396.31;;;5.94;76.93
3428;BME280;1727;42.624;23.406;2023-02-04T09:06:50;94392.31;;;6.01;78.01
3428;BME280;1727;42.624;23.406;2023-02-04T09:09:17;94402.97;;;5.98;76.17
3428;BME280;1727;42.624;23.406;2023-02-04T09:11:44;94393.84;;;5.93;78.09
3428;BME280;1727;42.624;23.406;2023-02-04T09:14:11;94393.97;;;6.02;77.79
3428;BME280;1727;42.624;23.406;2023-02-04T09:16:39;94389.47;;;6.04;76.22
3428;BME280;1727;42.624;23.406;2023-02-04T09:19:06;94385.22;;;6.03;75.58
3428;BME280;1727;42.624;23.406;2023-02-04T09:21:36;94377.63;;;6.00;75.96
3428;BME280;1727;42.624;23.406;2023-02-04T09:24:03;94377.06;;;6.08;76.61
3428;BME280;1727;42.624;23.406;2023-02-04T09:26:30;94369.75;;;6.13;75.93
3428;BME280;1727;42.624;23.406;2023-02-04T09:28:57;94382.66;;;6.14;75.31
3428;BME280;1727;42.624;23.406;2023-02-04T09:31:23;94376.50;;;6.15;74.14
3428;BME280;1727;42.624;23.406;2023-02-04T09:33:52;94367.72;;;6.28;74.39
3428;BME280;1727;42.624;23.406;2023-02-04T09:36:18;94372.69;;;6.31;73.14
3428;BME280;1727;42.624;23.406;2023-02-04T09:38:45;94375.69;;;6.37;72.63
3428;BME280;1727;42.624;23.406;2023-02-04T09:41:13;94373.09;;;6.37;72.98
3428;BME280;1727;42.624;23.406;2023-02-04T09:43:42;94376.25;;;6.30;75.60
3428;BME280;1727;42.624;23.406;2023-02-04T09:46:15;94366.06;;;6.27;74.54
3428;BME280;1727;42.624;23.406;2023-02-04T09:48:44;94372.13;;;6.27;76.92
3428;BME280;1727;42.624;23.406;2023-02-04T09:51:15;94364.53;;;6.35;77.26
3428;BME280;1727;42.624;23.406;2023-02-04T09:53:42;94369.16;;;6.20;78.89
3428;BME280;1727;42.624;23.406;2023-02-04T09:56:10;94362.47;;;6.05;79.51
3428;BME280;1727;42.624;23.406;2023-02-04T09:58:39;94363.22;;;6.07;82.15
3428;BME280;1727;42.624;23.406;2023-02-04T10:01:11;94356.44;;;6.05;83.20
3428;BME280;1727;42.624;23.406;2023-02-04T10:03:40;94348.50;;;6.06;83.10
3428;BME280;1727;42.624;23.406;2023-02-04T10:06:13;94343.78;;;6.00;83.39
3428;BME280;1727;42.624;23.406;2023-02-04T10:08:41;94333.13;;;6.03;89.18
3428;BME280;1727;42.624;23.406;2023-02-04T10:11:08;94341.44;;;6.08;84.62
3428;BME280;1727;42.624;23.406;2023-02-04T10:13:38;94321.78;;;6.15;82.22
3428;BME280;1727;42.624;23.406;2023-02-04T10:16:12;94324.63;;;6.12;81.47
3428;BME280;1727;42.624;23.406;2023-02-04T10:18:39;94322.16;;;6.22;81.70
3428;BME280;1727;42.624;23.406;2023-02-04T10:21:15;94321.78;;;6.15;81.09
3428;BME280;1727;42.624;23.406;2023-02-04T10:23:45;94323.69;;;6.13;80.28
3428;BME280;1727;42.624;23.406;2023-02-04T10:26:13;94309.44;;;6.06;79.27
3428;BME280;1727;42.624;23.406;2023-02-04T10:28:40;94319.28;;;6.03;78.22
3428;BME280;1727;42.624;23.406;2023-02-04T10:31:27;94308.53;;;6.07;79.68
3428;BME280;1727;42.624;23.406;2023-02-04T10:34:02;94306.13;;;5.93;81.91
3428;BME280;1727;42.624;23.406;2023-02-04T10:36:30;94309.81;;;6.02;81.85
3428;BME280;1727;42.624;23.406;2023-02-04T10:39:01;94309.34;;;6.19;84.23
3428;BME280;1727;42.624;23.406;2023-02-04T10:41:28;94311.25;;;6.17;79.00
3428;BME280;1727;42.624;23.406;2023-02-04T10:44:02;94316.34;;;6.18;79.33
3428;BME280;1727;42.624;23.406;2023-02-04T10:46:29;94309.69;;;6.03;82.95
3428;BME280;1727;42.624;23.406;2023-02-04T10:48:56;94314.56;;;6.08;82.54
3428;BME280;1727;42.624;23.406;2023-02-04T10:51:23;94306.84;;;6.06;83.21
3428;BME280;1727;42.624;23.406;2023-02-04T10:53:51;94308.22;;;5.88;85.52
3428;BME280;1727;42.624;23.406;2023-02-04T10:56:36;94309.28;;;5.85;84.90
3428;BME280;1727;42.624;23.406;2023-02-04T10:59:03;94301.63;;;5.95;85.89
3428;BME280;1727;42.624;23.406;2023-02-04T11:01:31;94299.63;;;5.99;86.32
3428;BME280;1727;42.624;23.406;2023-02-04T11:03:58;94293.13;;;6.04;85.78
3428;BME280;1727;42.624;23.406;2023-02-04T11:06:24;94297.97;;;5.98;84.90
3428;BME280;1727;42.624;23.406;2023-02-04T11:08:53;94298.13;;;6.07;87.31
3428;BME280;1727;42.624;23.406;2023-02-04T11:11:22;94290.06;;;6.21;90.78
3428;BME280;1727;42.624;23.406;2023-02-04T11:13:59;94295.84;;;6.25;85.49
3428;BME280;1727;42.624;23.406;2023-02-04T11:16:27;94290.06;;;6.21;83.11
3428;BME280;1727;42.624;23.406;2023-02-04T11:18:56;94291.09;;;6.30;82.69
3428;BME280;1727;42.624;23.406;2023-02-04T11:21:26;94286.00;;;6.29;83.59
3428;BME280;1727;42.624;23.406;2023-02-04T11:24:19;94281.50;;;6.31;82.02
3428;BME280;1727;42.624;23.406;2023-02-04T11:26:48;94283.03;;;6.33;80.71
3428;BME280;1727;42.624;23.406;2023-02-04T11:29:28;94293.59;;;6.32;79.87
3428;BME280;1727;42.624;23.406;2023-02-04T11:32:04;94289.34;;;6.42;81.73
3428;BME280;1727;42.624;23.406;2023-02-04T11:34:44;94282.34;;;6.42;79.79
3428;BME280;1727;42.624;23.406;2023-02-04T11:37:18;94290.88;;;6.44;79.95
3428;BME280;1727;42.624;23.406;2023-02-04T11:39:57;94292.13;;;6.61;85.42
3428;BME280;1727;42.624;23.406;2023-02-04T11:42:30;94293.09;;;6.60;80.74
3428;BME280;1727;42.624;23.406;2023-02-04T11:44:59;94295.59;;;6.50;80.28
3428;BME280;1727;42.624;23.406;2023-02-04T11:47:33;94293.00;;;6.50;85.32
3428;BME280;1727;42.624;23.406;2023-02-04T11:50:02;94294.19;;;6.35;81.26
3428;BME280;1727;42.624;23.406;2023-02-04T11:52:29;94300.00;;;6.16;84.16
3428;BME280;1727;42.624;23.406;2023-02-04T11:54:58;94291.97;;;6.08;84.48
3428;BME280;1727;42.624;23.406;2023-02-04T11:57:25;94288.41;;;6.09;86.84
3428;BME280;1727;42.624;23.406;2023-02-04T11:59:53;94284.81;;;5.99;87.09
3428;BME280;1727;42.624;23.406;2023-02-04T12:02:21;94275.84;;;6.26;94.93
3428;BME280;1727;42.624;23.406;2023-02-04T12:04:51;94282.47;;;6.30;88.92
3428;BME280;1727;42.624;23.406;2023-02-04T12:07:23;94275.16;;;6.12;87.02
3428;BME280;1727;42.624;23.406;2023-02-04T12:09:50;94272.75;;;5.98;87.22
3428;BME280;1727;42.624;23.406;2023-02-04T12:12:24;94274.19;;;6.02;89.34
3428;BME280;1727;42.624;23.406;2023-02-04T12:15:01;94275.00;;;5.92;89.48
3428;BME280;1727;42.624;23.406;2023-02-04T12:17:28;94270.59;;;5.81;88.90
3428;BME280;1727;42.624;23.406;2023-02-04T12:19:55;94264.78;;;5.77;91.16
3428;BME280;1727;42.624;23.406;2023-02-04T12:22:22;94267.38;;;5.77;91.93
3428;BME280;1727;42.624;23.406;2023-02-04T12:24:48;94262.53;;;5.73;90.79
3428;BME280;1727;42.624;23.406;2023-02-04T12:27:16;94264.41;;;5.59;91.65
3428;BME280;1727;42.624;23.406;2023-02-04T12:29:45;94257.19;;;5.52;92.81
3428;BME280;1727;42.624;23.406;2023-02-04T12:32:12;94266.41;;;5.56;94.01
3428;BME280;1727;42.624;23.406;2023-02-04T12:34:38;94248.19;;;5.56;93.34
3428;BME280;1727;42.624;23.406;2023-02-04T12:37:05;94253.97;;;5.48;93.68
3428;BME280;1727;42.624;23.406;2023-02-04T12:39:32;94258.81;;;5.42;94.64
3428;BME280;1727;42.624;23.406;2023-02-04T12:41:59;94254.06;;;5.36;95.26
3428;BME280;1727;42.624;23.406;2023-02-04T12:44:25;94247.09;;;5.36;94.22
3428;BME280;1727;42.624;23.406;2023-02-04T12:46:53;94253.03;;;5.49;99.55
3428;BME280;1727;42.624;23.406;2023-02-04T12:49:20;94253.13;;;5.37;92.67
3428;BME280;1727;42.624;23.406;2023-02-04T12:51:49;94257.75;;;5.44;93.67
3428;BME280;1727;42.624;23.406;2023-02-04T12:54:16;94257.97;;;5.41;92.17
3428;BME280;1727;42.624;23.406;2023-02-04T12:56:43;94255.38;;;5.41;92.21
3428;BME280;1727;42.624;23.406;2023-02-04T12:59:09;94247.84;;;5.49;91.24
3428;BME280;1727;42.624;23.406;2023-02-04T13:01:36;94260.38;;;5.55;89.62
3428;BME280;1727;42.624;23.406;2023-02-04T13:04:04;94258.72;;;5.54;87.00
3428;BME280;1727;42.624;23.406;2023-02-04T13:06:31;94249.25;;;5.53;86.45
3428;BME280;1727;42.624;23.406;2023-02-04T13:08:58;94256.34;;;5.51;85.69
3428;BME280;1727;42.624;23.406;2023-02-04T13:11:24;94263.94;;;5.54;85.66
3428;BME280;1727;42.624;23.406;2023-02-04T13:13:51;94256.97;;;5.66;87.67
3428;BME280;1727;42.624;23.406;2023-02-04T13:16:18;94265.59;;;5.55;83.73
3428;BME280;1727;42.624;23.406;2023-02-04T13:18:47;94260.03;;;5.60;84.69
3428;BME280;1727;42.624;23.406;2023-02-04T13:21:15;94260.97;;;5.59;84.09
3428;BME280;1727;42.624;23.406;2023-02-04T13:23:42;94272.69;;;5.53;83.92